createdAt,value
2018-12-05T00:01:43.951Z,5.87
2018-12-05T00:04:11.172Z,4.50
2018-12-05T00:06:29.769Z,5.20
2018-12-05T00:11:06.362Z,5.20
2018-12-05T00:13:15.199Z,4.63
2018-12-05T00:15:24.176Z,4.97
2018-12-05T00:17:33.556Z,6.20
2018-12-05T00:19:48.408Z,5.03
2018-12-05T00:21:54.364Z,5.77
2018-12-05T00:24:01.196Z,5.57
2018-12-05T00:26:07.011Z,5.70
2018-12-05T00:28:12.974Z,4.90
2018-12-05T00:30:18.738Z,5.43
2018-12-05T00:32:23.764Z,5.83
2018-12-05T00:34:28.875Z,4.97
2018-12-05T00:36:34.372Z,5.07
2018-12-05T00:38:40.257Z,5.57
2018-12-05T00:40:46.308Z,5.47
2018-12-05T00:42:52.094Z,5.77
2018-12-05T00:44:56.957Z,5.50
2018-12-05T00:47:02.434Z,6.00
2018-12-05T00:49:07.799Z,5.37
2018-12-05T00:51:13.930Z,5.80
2018-12-05T00:53:20.295Z,4.63
2018-12-05T00:55:25.281Z,6.37
2018-12-05T00:57:30.389Z,6.03
2018-12-05T00:59:35.917Z,5.20
2018-12-05T01:01:46.787Z,5.77
2018-12-05T01:03:56.801Z,5.40
2018-12-05T01:06:04.495Z,6.00
2018-12-05T01:08:09.539Z,5.47
2018-12-05T01:10:14.347Z,6.60
2018-12-05T01:12:20.408Z,5.63
2018-12-05T01:14:25.209Z,5.00
2018-12-05T01:16:30.146Z,5.67
2018-12-05T01:18:37.357Z,5.80
2018-12-05T01:20:43.551Z,5.83
2018-12-05T01:22:49.264Z,5.40
2018-12-05T01:24:54.117Z,5.13
2018-12-05T01:26:58.948Z,5.73
2018-12-05T01:29:04.214Z,5.60
2018-12-05T01:31:09.341Z,5.50
2018-12-05T01:33:14.177Z,5.70
2018-12-05T01:35:26.442Z,6.20
2018-12-05T01:37:31.248Z,5.57
2018-12-05T01:39:38.180Z,6.20
2018-12-05T01:41:43.174Z,5.93
2018-12-05T01:43:48.283Z,5.20
2018-12-05T01:45:53.664Z,5.50
2018-12-05T01:47:59.169Z,5.87
2018-12-05T01:50:07.947Z,6.37
2018-12-05T01:52:20.428Z,6.63
2018-12-05T01:54:28.185Z,7.10
2018-12-05T01:56:33.942Z,7.17
2018-12-05T01:58:38.988Z,6.47
2018-12-05T02:00:44.030Z,7.13
2018-12-05T02:02:51.814Z,7.33
2018-12-05T02:04:57.930Z,6.07
2018-12-05T02:07:03.408Z,6.50
2018-12-05T02:09:13.061Z,5.87
2018-12-05T02:11:17.843Z,6.83
2018-12-05T02:13:27.579Z,6.10
2018-12-05T02:15:32.382Z,5.97
2018-12-05T02:17:45.439Z,6.53
2018-12-05T02:19:51.053Z,7.20
2018-12-05T02:21:56.106Z,6.50
2018-12-05T02:24:00.927Z,6.47
2018-12-05T02:26:05.995Z,7.43
2018-12-05T02:28:11.445Z,6.87
2018-12-05T02:30:17.746Z,6.37
2018-12-05T02:32:22.538Z,6.70
2018-12-05T02:34:27.460Z,7.43
2018-12-05T02:36:32.265Z,7.80
2018-12-05T02:38:37.182Z,7.70
2018-12-05T02:40:42.192Z,7.40
2018-12-05T02:42:47.267Z,7.40
2018-12-05T02:44:57.390Z,7.20
2018-12-05T02:47:02.411Z,6.93
2018-12-05T02:49:07.338Z,6.27
2018-12-05T02:51:14.951Z,7.03
2018-12-05T02:53:19.640Z,6.50
2018-12-05T02:55:24.379Z,6.73
2018-12-05T02:57:29.285Z,7.17
2018-12-05T02:59:34.030Z,7.17
2018-12-05T03:01:39.021Z,7.50
2018-12-05T03:03:43.719Z,7.03
2018-12-05T03:05:48.474Z,7.10
2018-12-05T03:07:53.237Z,6.23
2018-12-05T03:09:57.932Z,7.93
2018-12-05T03:12:02.938Z,6.33
2018-12-05T03:14:07.748Z,7.10
2018-12-05T03:16:12.462Z,7.70
2018-12-05T03:18:17.162Z,6.40
2018-12-05T03:20:22.011Z,7.30
2018-12-05T03:22:26.827Z,7.17
2018-12-05T03:24:32.098Z,6.10
2018-12-05T03:26:38.706Z,6.77
2018-12-05T03:28:43.559Z,7.27
2018-12-05T03:30:48.255Z,6.80
2018-12-05T03:32:53.184Z,6.60
2018-12-05T03:34:58.462Z,6.73
2018-12-05T03:37:03.346Z,6.47
2018-12-05T03:39:09.939Z,7.07
2018-12-05T03:41:14.789Z,8.20
2018-12-05T03:43:19.602Z,6.40
2018-12-05T03:45:24.391Z,7.20
2018-12-05T03:47:29.265Z,7.07
2018-12-05T03:49:34.125Z,7.40
2018-12-05T03:51:39.145Z,7.60
2018-12-05T03:53:43.920Z,7.27
2018-12-05T03:55:48.754Z,7.80
2018-12-05T03:57:53.535Z,7.53
2018-12-05T03:59:58.495Z,6.60
2018-12-05T04:02:03.703Z,6.33
2018-12-05T04:04:08.743Z,7.90
2018-12-05T04:06:13.786Z,7.40
2018-12-05T04:08:19.408Z,6.70
2018-12-05T04:10:24.123Z,5.97
2018-12-05T04:12:28.986Z,7.50
2018-12-05T04:14:34.002Z,5.80
2018-12-05T04:16:38.789Z,7.03
2018-12-05T04:18:43.643Z,6.63
2018-12-05T04:20:48.531Z,7.10
2018-12-05T04:22:53.589Z,6.80
2018-12-05T04:24:58.430Z,6.20
2018-12-05T04:27:03.507Z,7.90
2018-12-05T04:29:08.728Z,7.23
2018-12-05T04:31:13.788Z,7.00
2018-12-05T04:33:18.799Z,7.03
2018-12-05T04:35:24.081Z,6.80
2018-12-05T04:37:29.694Z,6.60
2018-12-05T04:39:34.871Z,6.33
2018-12-05T04:41:39.681Z,7.57
2018-12-05T04:43:44.534Z,6.90
2018-12-05T04:45:49.797Z,6.53
2018-12-05T04:47:54.754Z,7.00
2018-12-05T04:49:59.811Z,7.83
2018-12-05T04:52:04.819Z,7.10
2018-12-05T04:54:09.839Z,6.60
2018-12-05T04:56:14.895Z,7.20
2018-12-05T04:58:20.012Z,8.30
2018-12-05T05:00:24.877Z,6.80
2018-12-05T05:02:29.873Z,7.67
2018-12-05T05:04:34.995Z,6.57
2018-12-05T05:06:41.877Z,7.90
2018-12-05T05:08:47.026Z,7.23
2018-12-05T05:10:52.308Z,7.90
2018-12-05T05:12:57.504Z,8.50
2018-12-05T05:15:02.444Z,8.27
2018-12-05T05:17:08.563Z,8.27
2018-12-05T05:19:13.453Z,8.27
2018-12-05T05:21:18.502Z,7.03
2018-12-05T05:23:23.365Z,9.10
2018-12-05T05:25:28.207Z,8.20
2018-12-05T05:27:32.928Z,8.67
2018-12-05T05:29:37.877Z,6.80
2018-12-05T05:31:43.009Z,6.63
2018-12-05T05:33:48.081Z,7.43
2018-12-05T05:35:52.869Z,7.20
2018-12-05T05:37:57.808Z,7.33
2018-12-05T05:40:02.751Z,7.23
2018-12-05T05:42:08.085Z,8.03
2018-12-05T05:44:13.021Z,7.30
2018-12-05T05:46:17.848Z,6.57
2018-12-05T05:48:23.075Z,7.23
2018-12-05T05:50:28.091Z,6.70
2018-12-05T05:52:33.377Z,7.07
2018-12-05T05:54:38.174Z,7.13
2018-12-05T05:56:43.192Z,6.30
2018-12-05T05:58:48.297Z,7.57
2018-12-05T06:00:53.339Z,6.63
2018-12-05T06:02:58.250Z,7.60
2018-12-05T06:05:03.069Z,6.53
2018-12-05T06:07:08.052Z,7.17
2018-12-05T06:09:12.961Z,6.40
2018-12-05T06:11:17.838Z,7.67
2018-12-05T06:13:22.645Z,6.20
2018-12-05T06:15:27.791Z,6.23
2018-12-05T06:17:32.740Z,5.93
2018-12-05T06:19:37.723Z,6.23
2018-12-05T06:21:42.929Z,7.27
2018-12-05T06:23:47.983Z,6.47
2018-12-05T06:25:52.885Z,5.60
2018-12-05T06:27:57.638Z,5.30
2018-12-05T06:30:02.775Z,6.70
2018-12-05T06:32:08.009Z,6.03
2018-12-05T06:34:14.810Z,6.60
2018-12-05T06:36:41.152Z,5.40
2018-12-05T06:38:46.149Z,6.47
2018-12-05T06:40:51.180Z,5.47
2018-12-05T06:42:56.130Z,6.27
2018-12-05T06:45:00.995Z,6.40
2018-12-05T06:47:06.086Z,6.97
2018-12-05T06:49:10.908Z,6.03
2018-12-05T06:51:15.735Z,5.70
2018-12-05T06:53:20.621Z,5.80
2018-12-05T06:55:25.390Z,5.20
2018-12-05T06:57:30.216Z,6.20
2018-12-05T06:59:35.160Z,4.90
2018-12-05T07:01:39.848Z,6.83
2018-12-05T07:03:44.741Z,6.43
2018-12-05T07:05:49.805Z,6.37
2018-12-05T07:07:54.579Z,6.03
2018-12-05T07:09:59.447Z,6.50
2018-12-05T07:12:04.311Z,5.80
2018-12-05T07:14:09.247Z,5.00
2018-12-05T07:16:13.930Z,5.23
2018-12-05T07:18:18.660Z,5.40
2018-12-05T07:20:24.213Z,5.90
2018-12-05T07:22:28.947Z,5.10
2018-12-05T07:24:33.962Z,5.80
2018-12-05T07:26:39.101Z,5.47
2018-12-05T07:28:51.830Z,5.37
2018-12-05T07:30:57.990Z,5.20
2018-12-05T07:33:02.813Z,5.60
2018-12-05T07:35:08.488Z,5.60
2018-12-05T07:37:13.278Z,7.37
2018-12-05T07:39:18.037Z,4.60
2018-12-05T07:41:22.977Z,5.23
2018-12-05T07:43:27.795Z,5.50
2018-12-05T07:45:32.691Z,5.53
2018-12-05T07:47:37.377Z,4.77
2018-12-05T07:52:22.280Z,6.20
2018-12-05T07:54:27.170Z,5.57
2018-12-05T07:56:32.001Z,5.20
2018-12-05T07:58:37.045Z,4.70
2018-12-05T08:00:41.823Z,5.30
2018-12-05T08:02:46.677Z,5.40
2018-12-05T08:04:52.386Z,5.03
2018-12-05T08:06:57.490Z,4.80
2018-12-05T08:09:04.814Z,5.17
2018-12-05T08:11:10.879Z,4.90
2018-12-05T08:13:16.587Z,5.17
2018-12-05T08:15:21.625Z,4.40
2018-12-05T08:17:27.235Z,5.03
2018-12-05T08:19:33.163Z,5.20
2018-12-05T08:23:55.350Z,4.40
2018-12-05T08:28:14.937Z,4.10
2018-12-05T08:30:19.778Z,4.60
2018-12-05T08:32:24.666Z,4.93
2018-12-05T08:34:29.417Z,3.90
2018-12-05T08:36:34.153Z,4.20
2018-12-05T08:38:39.447Z,4.13
2018-12-05T08:40:44.264Z,4.20
2018-12-05T08:42:49.357Z,4.27
2018-12-05T08:44:54.342Z,4.50
2018-12-05T08:46:59.185Z,4.70
2018-12-05T08:49:04.259Z,4.13
2018-12-05T08:51:09.222Z,4.17
2018-12-05T08:53:14.244Z,4.23
2018-12-05T08:55:19.022Z,4.37
2018-12-05T08:57:23.863Z,3.70
2018-12-05T08:59:28.539Z,5.30
2018-12-05T09:01:33.767Z,4.20
2018-12-05T09:03:38.471Z,4.63
2018-12-05T09:05:43.295Z,4.30
2018-12-05T09:07:48.056Z,4.27
2018-12-05T09:09:52.927Z,4.03
2018-12-05T09:11:57.672Z,4.53
2018-12-05T09:14:02.498Z,5.17
2018-12-05T09:16:07.307Z,3.90
2018-12-05T09:18:12.381Z,3.90
2018-12-05T09:20:17.139Z,4.00
2018-12-05T09:22:22.213Z,4.20
2018-12-05T09:24:27.373Z,4.50
2018-12-05T09:26:32.293Z,4.53
2018-12-05T09:28:37.072Z,3.97
2018-12-05T09:30:41.909Z,3.97
2018-12-05T09:32:46.808Z,4.70
2018-12-05T09:34:51.679Z,4.00
2018-12-05T09:36:56.448Z,3.97
2018-12-05T09:39:01.319Z,3.90
2018-12-05T09:41:06.436Z,3.90
2018-12-05T09:43:11.493Z,4.60
2018-12-05T09:45:16.859Z,4.43
2018-12-05T09:47:21.832Z,4.43
2018-12-05T09:49:26.629Z,4.77
2018-12-05T09:53:57.889Z,4.20
2018-12-05T09:56:02.834Z,4.47
2018-12-05T09:58:07.731Z,4.60
2018-12-05T10:00:12.791Z,5.27
2018-12-05T10:02:19.561Z,4.13
2018-12-05T10:04:24.527Z,4.70
2018-12-05T10:06:29.657Z,4.47
2018-12-05T10:08:35.056Z,5.70
2018-12-05T10:10:40.006Z,5.40
2018-12-05T10:12:44.924Z,4.47
2018-12-05T10:14:50.437Z,5.17
2018-12-05T10:16:55.581Z,5.00
2018-12-05T10:19:00.498Z,6.43
2018-12-05T10:21:05.302Z,5.80
2018-12-05T10:23:10.057Z,5.90
2018-12-05T10:25:15.497Z,5.10
2018-12-05T10:27:20.352Z,5.50
2018-12-05T10:29:25.304Z,4.70
2018-12-05T10:31:30.113Z,5.67
2018-12-05T10:33:35.515Z,5.63
2018-12-05T10:35:41.401Z,5.03
2018-12-05T10:37:46.572Z,5.57
2018-12-05T10:39:51.375Z,5.37
2018-12-05T10:41:56.343Z,5.87
2018-12-05T10:44:02.073Z,5.70
2018-12-05T10:46:06.868Z,6.77
2018-12-05T10:48:12.534Z,6.50
2018-12-05T10:50:17.584Z,6.10
2018-12-05T10:52:22.619Z,6.47
2018-12-05T10:54:27.592Z,5.50
2018-12-05T10:56:32.347Z,6.23
2018-12-05T10:58:37.539Z,6.10
2018-12-05T11:00:47.452Z,6.47
2018-12-05T11:02:57.886Z,5.73
2018-12-05T11:05:07.655Z,5.70
2018-12-05T11:07:17.403Z,6.73
2018-12-05T11:09:27.201Z,5.80
2018-12-05T11:11:36.934Z,6.17
2018-12-05T11:13:46.896Z,5.90
2018-12-05T11:15:56.773Z,6.23
2018-12-05T11:18:06.483Z,7.27
2018-12-05T11:20:16.518Z,6.20
2018-12-05T11:22:26.487Z,6.37
2018-12-05T11:26:53.048Z,6.67
2018-12-05T11:28:58.105Z,6.50
2018-12-05T11:31:02.914Z,6.77
2018-12-05T11:33:07.710Z,6.60
2018-12-05T11:35:12.508Z,7.00
2018-12-05T11:37:17.208Z,6.17
2018-12-05T11:39:21.958Z,6.17
2018-12-05T11:41:26.718Z,6.40
2018-12-05T11:43:31.511Z,6.87
2018-12-05T11:45:36.243Z,6.30
2018-12-05T11:47:41.134Z,6.57
2018-12-05T11:49:45.989Z,6.90
2018-12-05T11:51:50.741Z,5.73
2018-12-05T11:53:55.657Z,6.47
2018-12-05T11:56:00.479Z,5.83
2018-12-05T11:58:05.500Z,7.60
2018-12-05T12:00:10.701Z,6.60
2018-12-05T12:02:22.181Z,6.93
2018-12-05T12:04:23.661Z,6.30
2018-12-05T12:06:28.510Z,6.53
2018-12-05T12:08:33.713Z,7.33
2018-12-05T12:10:40.792Z,5.20
2018-12-05T12:12:51.357Z,5.93
2018-12-05T12:14:56.135Z,6.00
2018-12-05T12:17:01.041Z,6.30
2018-12-05T12:19:05.905Z,6.53
2018-12-05T12:21:10.998Z,6.60
2018-12-05T12:23:16.241Z,6.87
2018-12-05T12:25:22.009Z,6.30
2018-12-05T12:27:27.209Z,6.40
2018-12-05T12:29:32.047Z,6.07
2018-12-05T12:31:36.973Z,6.67
2018-12-05T12:33:41.871Z,6.70
2018-12-05T12:35:46.990Z,6.07
2018-12-05T12:37:51.927Z,6.97
2018-12-05T12:39:56.967Z,6.17
2018-12-05T12:42:01.854Z,5.57
2018-12-05T12:44:06.852Z,5.50
2018-12-05T12:46:11.720Z,5.67
2018-12-05T12:48:16.876Z,5.33
2018-12-05T12:50:21.922Z,5.90
2018-12-05T12:52:26.954Z,6.20
2018-12-05T12:54:31.906Z,6.20
2018-12-05T12:56:37.047Z,7.10
2018-12-05T12:58:42.107Z,5.53
2018-12-05T13:00:47.954Z,7.20
2018-12-05T13:02:53.510Z,6.93
2018-12-05T13:04:58.507Z,6.00
2018-12-05T13:07:03.777Z,6.13
2018-12-05T13:09:09.602Z,6.17
2018-12-05T13:11:14.716Z,5.20
2018-12-05T13:13:19.883Z,6.33
2018-12-05T13:15:25.351Z,6.50
2018-12-05T13:17:31.035Z,5.63
2018-12-05T13:19:36.031Z,7.60
2018-12-05T13:21:41.121Z,6.70
2018-12-05T13:23:46.124Z,6.27
2018-12-05T13:25:51.113Z,7.03
2018-12-05T13:28:03.962Z,6.80
2018-12-05T13:30:09.371Z,6.17
2018-12-05T13:32:14.615Z,6.10
2018-12-05T13:34:19.503Z,7.03
2018-12-05T13:36:24.756Z,6.33
2018-12-05T13:38:30.424Z,6.93
2018-12-05T13:40:35.978Z,6.37
2018-12-05T13:42:40.780Z,7.00
2018-12-05T13:44:45.793Z,5.17
2018-12-05T14:23:50.774Z,6.50
2018-12-05T14:25:56.530Z,7.17
2018-12-05T14:28:01.386Z,6.97
2018-12-05T14:30:07.821Z,6.27
2018-12-05T14:32:13.900Z,6.37
2018-12-05T14:34:18.802Z,7.10
2018-12-05T14:36:29.255Z,6.33
2018-12-05T14:38:39.076Z,7.20
2018-12-05T14:40:43.948Z,6.40
2018-12-05T14:42:49.061Z,7.80
2018-12-05T14:44:54.188Z,6.40
2018-12-05T14:46:59.133Z,7.40
2018-12-05T14:49:04.059Z,7.10
2018-12-05T14:55:42.384Z,7.43
2018-12-05T14:57:47.271Z,6.60
2018-12-05T14:59:52.454Z,6.83
2018-12-05T15:01:57.372Z,7.40
2018-12-05T15:04:03.807Z,8.10
2018-12-05T15:06:08.589Z,7.00
2018-12-05T15:08:13.535Z,7.07
2018-12-05T15:10:18.456Z,7.03
2018-12-05T15:12:23.289Z,6.40
2018-12-05T15:14:29.792Z,7.57
2018-12-05T15:16:34.729Z,7.53
2018-12-05T15:18:39.513Z,6.70
2018-12-05T15:20:44.875Z,7.30
2018-12-05T15:22:49.845Z,6.50
2018-12-05T15:24:54.706Z,6.90
2018-12-05T15:26:59.694Z,6.47
2018-12-05T15:29:04.587Z,6.60
2018-12-05T15:31:09.719Z,6.27
2018-12-05T15:33:14.596Z,6.80
2018-12-05T15:35:19.751Z,7.20
2018-12-05T15:37:25.152Z,6.63
2018-12-05T15:39:29.994Z,6.23
2018-12-05T15:41:35.151Z,7.20
2018-12-05T15:43:40.096Z,6.43
2018-12-05T15:45:44.991Z,7.80
2018-12-05T15:47:49.977Z,5.90
2018-12-05T15:49:54.842Z,6.10
2018-12-05T15:51:59.796Z,6.53
2018-12-05T15:54:05.936Z,6.67
2018-12-05T15:56:10.783Z,6.60
2018-12-05T15:58:15.750Z,6.67
2018-12-05T16:00:21.164Z,6.60
2018-12-05T16:02:26.466Z,6.83
2018-12-05T16:04:31.322Z,5.83
2018-12-05T16:06:36.299Z,7.67
2018-12-05T16:08:41.214Z,7.03
2018-12-05T16:10:46.705Z,5.90
2018-12-05T16:12:51.671Z,5.27
2018-12-05T16:14:56.863Z,6.50
2018-12-05T16:17:02.278Z,7.47
2018-12-05T16:19:07.273Z,6.27
2018-12-05T16:21:12.215Z,6.30
2018-12-05T16:23:17.551Z,6.53
2018-12-05T16:25:22.980Z,6.83
2018-12-05T16:27:27.923Z,6.87
2018-12-05T16:29:33.380Z,5.80
2018-12-05T16:31:39.499Z,6.70
2018-12-05T16:33:44.371Z,6.30
2018-12-05T16:35:49.203Z,6.20
2018-12-05T16:37:56.177Z,5.93
2018-12-05T16:40:01.161Z,5.80
2018-12-05T16:42:06.494Z,6.77
2018-12-05T16:44:13.013Z,7.40
2018-12-05T16:46:18.284Z,6.50
2018-12-05T16:48:23.320Z,6.63
2018-12-05T16:50:28.379Z,6.30
2018-12-05T16:52:33.239Z,6.30
2018-12-05T16:54:38.383Z,5.67
2018-12-05T16:56:44.693Z,6.40
2018-12-05T16:58:49.840Z,7.00
2018-12-05T17:00:54.711Z,6.43
2018-12-05T17:02:59.858Z,6.90
2018-12-05T17:05:05.230Z,7.07
2018-12-05T17:07:10.002Z,6.77
2018-12-05T17:09:14.763Z,6.90
2018-12-05T17:11:19.950Z,7.47
2018-12-05T17:13:25.045Z,7.37
2018-12-05T17:15:30.263Z,6.73
2018-12-05T17:17:35.150Z,6.70
2018-12-05T17:19:40.553Z,6.17
2018-12-05T17:21:45.482Z,6.50
2018-12-05T17:23:50.324Z,6.03
2018-12-05T17:25:56.268Z,6.30
2018-12-05T17:28:01.525Z,6.93
2018-12-05T17:30:09.046Z,6.20
2018-12-05T17:32:14.907Z,7.50
2018-12-05T17:34:22.690Z,5.50
2018-12-05T17:36:29.316Z,7.07
2018-12-05T17:38:34.651Z,7.13
2018-12-05T17:40:40.160Z,7.40
2018-12-05T17:42:45.913Z,6.40
2018-12-05T17:44:51.590Z,7.27
2018-12-05T17:46:59.174Z,7.43
2018-12-05T17:49:04.097Z,6.00
2018-12-05T17:51:11.496Z,7.10
2018-12-05T17:53:19.304Z,6.33
2018-12-05T17:55:24.334Z,6.67
2018-12-05T17:57:29.522Z,7.00
2018-12-05T17:59:34.678Z,7.43
2018-12-05T18:01:39.718Z,6.87
2018-12-05T18:03:44.677Z,7.20
2018-12-05T18:05:49.958Z,6.80
2018-12-05T18:07:54.818Z,6.33
2018-12-05T18:09:59.835Z,7.20
2018-12-05T18:12:04.795Z,7.03
2018-12-05T18:14:09.827Z,7.20
2018-12-05T18:16:14.880Z,7.17
2018-12-05T18:18:22.311Z,8.20
2018-12-05T18:20:27.390Z,7.27
2018-12-05T18:22:32.138Z,6.33
2018-12-05T18:24:37.586Z,6.13
2018-12-05T18:26:43.244Z,6.60
2018-12-05T18:28:48.074Z,6.70
2018-12-05T18:30:53.203Z,6.83
2018-12-05T18:32:58.094Z,6.70
2018-12-05T18:35:03.155Z,8.07
2018-12-05T18:37:08.300Z,6.40
2018-12-05T18:39:13.813Z,7.17
2018-12-05T18:41:19.806Z,7.00
2018-12-05T18:43:24.984Z,5.77
2018-12-05T18:45:31.346Z,6.10
2018-12-05T18:47:36.507Z,6.50
2018-12-05T18:49:41.579Z,6.50
2018-12-05T18:51:46.407Z,7.30
2018-12-05T18:53:52.596Z,6.90
2018-12-05T18:55:57.422Z,6.47
2018-12-05T18:58:02.477Z,7.33
2018-12-05T19:00:10.210Z,6.40
2018-12-05T19:02:15.452Z,7.27
2018-12-05T19:04:20.693Z,6.50
2018-12-05T19:06:26.046Z,6.00
2018-12-05T19:08:34.360Z,7.27
2018-12-05T19:10:39.099Z,7.33
2018-12-05T19:12:48.280Z,6.30
2018-12-05T19:14:53.647Z,6.93
2018-12-05T19:16:58.607Z,7.03
2018-12-05T19:19:03.480Z,6.87
2018-12-05T19:21:08.777Z,5.77
2018-12-05T19:23:14.129Z,6.70
2018-12-05T19:25:20.081Z,6.50
2018-12-05T19:27:26.606Z,6.50
2018-12-05T19:29:31.638Z,6.43
2018-12-05T19:31:36.677Z,6.83
2018-12-05T19:33:42.576Z,6.77
2018-12-05T19:35:50.971Z,6.17
2018-12-05T19:37:56.150Z,6.83
2018-12-05T19:40:01.622Z,6.60
2018-12-05T19:42:06.739Z,6.57
2018-12-05T19:44:22.805Z,7.33
2018-12-05T19:46:28.516Z,6.27
2018-12-05T19:48:34.069Z,6.37
2018-12-05T19:50:38.899Z,6.70
2018-12-05T19:52:43.908Z,6.60
2018-12-05T19:54:50.133Z,6.57
2018-12-05T19:56:56.716Z,6.43
2018-12-05T19:59:02.439Z,5.60
2018-12-05T20:01:09.179Z,6.33
2018-12-05T20:03:14.380Z,6.73
2018-12-05T20:05:19.331Z,6.30
2018-12-05T20:07:24.642Z,6.80
2018-12-05T20:09:31.030Z,6.77
2018-12-05T20:11:36.297Z,5.73
2018-12-05T20:13:41.225Z,6.60
2018-12-05T20:15:47.079Z,7.00
2018-12-05T20:17:52.084Z,5.73
2018-12-05T20:19:57.554Z,6.67
2018-12-05T20:22:02.594Z,6.30
2018-12-05T20:24:28.139Z,6.50
2018-12-05T20:26:33.986Z,6.27
2018-12-05T20:28:40.215Z,6.80
2018-12-05T20:30:45.844Z,6.67
2018-12-05T20:32:51.242Z,7.33
2018-12-05T20:35:01.537Z,6.50
2018-12-05T20:37:24.799Z,6.53
2018-12-05T20:39:34.783Z,5.70
2018-12-05T20:41:47.255Z,6.27
2018-12-05T20:43:52.623Z,6.33
2018-12-05T20:45:58.201Z,6.70
2018-12-05T20:48:04.764Z,6.20
2018-12-05T20:50:10.801Z,6.63
2018-12-05T20:52:46.030Z,6.80
2018-12-05T20:54:51.315Z,6.37
2018-12-05T20:56:57.314Z,5.80
2018-12-05T20:59:23.335Z,6.90
2018-12-05T21:01:53.805Z,6.07
2018-12-05T21:04:00.936Z,5.40
2018-12-05T21:06:06.402Z,6.40
2018-12-05T21:08:11.536Z,5.73
2018-12-05T21:10:16.386Z,6.50
2018-12-05T21:12:21.288Z,5.73
2018-12-05T21:14:26.255Z,6.10
2018-12-05T21:16:31.541Z,6.70
2018-12-05T21:18:37.705Z,5.53
2018-12-05T21:20:45.726Z,5.37
2018-12-05T21:22:50.678Z,6.27
2018-12-05T21:24:55.995Z,5.80
2018-12-05T21:27:00.905Z,6.20
2018-12-05T21:29:06.445Z,6.30
2018-12-05T21:31:13.711Z,6.20
2018-12-05T21:33:20.711Z,6.47
2018-12-05T21:35:25.783Z,6.23
2018-12-05T21:37:30.918Z,6.60
2018-12-05T21:39:35.947Z,6.90
2018-12-05T21:41:41.448Z,5.90
2018-12-05T21:43:46.445Z,6.60
2018-12-05T21:45:51.590Z,6.20
2018-12-05T21:47:58.934Z,7.43
2018-12-05T21:50:05.318Z,6.47
2018-12-05T21:52:11.583Z,7.60
2018-12-05T21:54:16.476Z,6.90
2018-12-05T21:56:22.586Z,6.77
2018-12-05T21:58:36.918Z,6.90
2018-12-05T22:00:51.996Z,6.07
2018-12-05T22:02:58.104Z,6.40
2018-12-05T22:05:07.798Z,7.10
2018-12-05T22:07:18.003Z,7.57
2018-12-05T22:09:24.466Z,7.00
2018-12-05T22:11:34.225Z,7.70
2018-12-05T22:13:41.391Z,7.00
2018-12-05T22:15:48.119Z,6.67
2018-12-05T22:17:53.320Z,6.63
2018-12-05T22:19:58.346Z,6.87
2018-12-05T22:22:03.751Z,6.50
2018-12-05T22:24:16.935Z,6.20
2018-12-05T22:26:21.860Z,7.13
2018-12-05T22:28:30.851Z,7.27
2018-12-05T22:32:48.478Z,6.27
2018-12-05T22:34:53.752Z,7.17
2018-12-05T22:36:58.824Z,6.47
2018-12-05T22:39:05.951Z,7.47
2018-12-05T22:41:12.359Z,6.43
2018-12-05T22:43:17.426Z,6.13
2018-12-05T22:45:30.062Z,5.80
2018-12-05T22:47:35.562Z,6.67
2018-12-05T22:49:41.235Z,7.30
2018-12-05T22:51:48.071Z,6.93
2018-12-05T22:53:53.111Z,6.73
2018-12-05T22:55:58.073Z,7.50
2018-12-05T22:58:03.108Z,6.47
2018-12-05T23:00:16.494Z,7.00
2018-12-05T23:02:21.655Z,6.93
2018-12-05T23:04:26.748Z,6.93
2018-12-05T23:06:35.450Z,6.53
2018-12-05T23:08:41.641Z,6.93
2018-12-05T23:10:53.745Z,6.73
2018-12-05T23:13:02.349Z,6.77
2018-12-05T23:15:14.634Z,7.07
2018-12-05T23:17:19.585Z,6.73
2018-12-05T23:19:25.449Z,6.20
2018-12-05T23:21:32.025Z,7.80
2018-12-05T23:23:37.113Z,6.30
2018-12-05T23:25:43.845Z,5.97
2018-12-05T23:27:49.122Z,6.43
2018-12-05T23:29:57.228Z,5.97
2018-12-05T23:32:02.495Z,6.50
2018-12-05T23:34:07.647Z,5.87
2018-12-05T23:36:12.900Z,5.50
2018-12-05T23:38:17.822Z,5.17
2018-12-05T23:40:23.144Z,6.07
2018-12-05T23:42:28.344Z,7.00
2018-12-05T23:44:34.208Z,7.17
2018-12-05T23:46:38.961Z,6.70
2018-12-05T23:48:43.950Z,7.00
2018-12-05T23:50:49.868Z,5.43
2018-12-05T23:52:54.634Z,6.97
2018-12-05T23:54:59.673Z,6.20
2018-12-05T23:57:04.628Z,5.70
2018-12-05T23:59:09.510Z,7.13
